Fond du Lac County Airport


Codes: KFLD/FLD
Name: Fond du Lac County Airport
City: Fond du Lac
Country: United States
Elevation: 808 ft.
Website:
Wikipedia:

Photos at Fond du Lac County Airport


   Photos courtesy of SpottingLog. You can add your own sightings and photos by signing up for a free trial today.



No photos found.

Weather at Fond du Lac County Airport


Time (UTC)DescriptionTempratureWindCloud coverageVisibilityPressureHumidity
16-Jun-2024 12:00Light Rain21°C20 mph, S60%10000m1012hPa63%
16-Jun-2024 15:00Light Rain20°C18 mph, S80%10000m1011hPa79%
16-Jun-2024 18:00Light Rain23°C20 mph, S100%10000m1009hPa81%
16-Jun-2024 21:00Light Rain28°C18 mph, SW100%10000m1007hPa78%
17-Jun-2024 00:00Light Rain27°C20 mph, SW86%10000m1007hPa80%
17-Jun-2024 03:00Clear Sky25°C16 mph, SW2%10000m1008hPa85%
17-Jun-2024 06:00Light Rain24°C16 mph, SW2%10000m1009hPa92%
17-Jun-2024 09:00Moderate Rain22°C11 mph, SW68%10000m1010hPa96%
17-Jun-2024 12:00Light Rain22°C9 mph, SW76%10000m1011hPa94%
17-Jun-2024 15:00Broken Clouds27°C16 mph, SW82%10000m1011hPa77%
17-Jun-2024 18:00Light Rain30°C16 mph, SW91%10000m1011hPa64%
17-Jun-2024 21:00Light Rain30°C13 mph, SW28%10000m1011hPa69%
18-Jun-2024 00:00Light Rain26°C13 mph, S64%10000m1011hPa84%
18-Jun-2024 03:00Overcast Clouds23°C11 mph, S100%10000m1012hPa91%
18-Jun-2024 06:00Overcast Clouds22°C13 mph, S100%10000m1013hPa87%
18-Jun-2024 09:00Overcast Clouds21°C16 mph, S100%10000m1012hPa89%
18-Jun-2024 12:00Scattered Clouds22°C16 mph, S50%10000m1013hPa90%
18-Jun-2024 15:00Clear Sky25°C20 mph, S1%10000m1013hPa80%
18-Jun-2024 18:00Few Clouds27°C18 mph, SW24%10000m1013hPa78%
18-Jun-2024 21:00Light Rain29°C18 mph, S32%10000m1013hPa75%
19-Jun-2024 00:00Few Clouds26°C20 mph, S16%10000m1013hPa82%
19-Jun-2024 03:00Clear Sky25°C18 mph, S0%10000m1014hPa81%
19-Jun-2024 06:00Clear Sky24°C18 mph, SW0%10000m1015hPa82%
19-Jun-2024 09:00Clear Sky23°C18 mph, SW0%10000m1016hPa85%
19-Jun-2024 12:00Scattered Clouds22°C16 mph, S39%10000m1018hPa88%
19-Jun-2024 15:00Few Clouds25°C16 mph, SW13%10000m1020hPa79%
19-Jun-2024 18:00Light Rain26°C11 mph, SW28%8311m1021hPa75%
19-Jun-2024 21:00Moderate Rain25°C9 mph, W85%5747m1021hPa81%
20-Jun-2024 00:00Light Rain23°C9 mph, NW85%10000m1023hPa88%
20-Jun-2024 03:00Light Rain19°C4 mph, N90%5047m1024hPa98%
20-Jun-2024 06:00Light Rain19°C4 mph, NE95%10000m1025hPa97%
20-Jun-2024 09:00Moderate Rain19°C4 mph, NE100%10000m1025hPa98%
20-Jun-2024 12:00Moderate Rain19°C7 mph, N100%0m1026hPa99%
20-Jun-2024 15:00Light Rain17°C9 mph, NE100%407m1028hPa98%
20-Jun-2024 18:00Light Rain19°C7 mph, NE100%10000m1027hPa92%
20-Jun-2024 21:00Broken Clouds23°C4 mph, E83%10000m1025hPa81%
21-Jun-2024 00:00Overcast Clouds22°C7 mph, NE91%10000m1025hPa90%
21-Jun-2024 03:00Light Rain19°C7 mph, E100%6051m1025hPa97%
21-Jun-2024 06:00Moderate Rain18°C4 mph, E100%8440m1024hPa96%
21-Jun-2024 09:00Light Rain18°C4 mph, SE100%10000m1023hPa96%